Time;durP1;ratioP1;P1;durP2;ratioP2;P2;SDS_P1;SDS_P2;PMS_P1;PMS_P2;Temp;Humidity;BMP_temperature;BMP_pressure;BME280_temperature;BME280_humidity;BME280_pressure;Samples;Min_cycle;Max_cycle;Signal;HPM_P1;HPM_P2
2023/03/12 00:01:20;;;;;;;4.90;3.70;;;;;;;4.76;85.80;96877.11;106870;1269;69939;-41
2023/03/12 00:03:49;;;;;;;3.10;2.80;;;;;;;4.79;86.00;96882.70;106946;1266;72044;-40
2023/03/12 00:06:19;;;;;;;3.20;2.70;;;;;;;4.78;85.90;96882.17;106867;1264;62373;-40
2023/03/12 00:08:53;;;;;;;3.20;2.10;;;;;;;4.76;85.62;96873.19;106903;1266;61325;-40
2023/03/12 00:11:24;;;;;;;2.50;2.10;;;;;;;4.77;85.42;96896.59;106943;1260;75442;-40
2023/03/12 00:13:54;;;;;;;2.60;1.60;;;;;;;4.69;85.53;96903.48;107006;1265;69942;-40
2023/03/12 00:16:22;;;;;;;;;;;;;;;4.68;85.21;96905.40;107013;1266;72674;-40
2023/03/12 00:18:52;;;;;;;4.50;1.40;;;;;;;4.64;85.07;96905.45;107095;1262;60792;-40
2023/03/12 00:21:21;;;;;;;1.20;0.80;;;;;;;4.57;85.30;96905.13;107026;1260;61552;-40
2023/03/12 00:23:53;;;;;;;3.30;1.40;;;;;;;4.54;85.17;96913.86;106971;1261;75024;-40
2023/03/12 00:26:21;;;;;;;1.00;0.90;;;;;;;4.55;85.38;96923.13;107044;1263;69877;-40
2023/03/12 00:28:50;;;;;;;1.20;1.10;;;;;;;4.55;84.89;96935.16;106991;1266;73882;-40
2023/03/12 00:31:22;;;;;;;2.10;1.10;;;;;;;4.54;85.05;96937.86;106981;1266;61570;-40
2023/03/12 00:33:53;;;;;;;1.60;1.20;;;;;;;4.48;85.23;96934.15;106996;1265;60303;-40
2023/03/12 00:36:23;;;;;;;1.40;1.00;;;;;;;4.51;85.27;96944.36;107037;1266;75031;-40
2023/03/12 00:38:53;;;;;;;0.90;0.70;;;;;;;4.50;84.49;96948.88;106969;1263;69605;-40
2023/03/12 00:41:22;;;;;;;1.10;0.70;;;;;;;4.41;83.76;96950.60;106971;1264;73608;-40
2023/03/12 00:43:50;;;;;;;0.60;0.60;;;;;;;4.25;83.68;96955.83;106911;1262;62175;-40
2023/03/12 00:46:19;;;;;;;0.50;0.50;;;;;;;4.14;83.73;96960.37;106793;1266;61559;-41
2023/03/12 00:48:47;;;;;;;1.60;0.90;;;;;;;4.03;83.81;96970.48;106889;1265;75092;-40
2023/03/12 00:51:16;;;;;;;1.00;0.60;;;;;;;3.92;83.97;96970.48;106988;1265;68984;-40
2023/03/12 00:53:44;;;;;;;1.10;0.80;;;;;;;3.87;83.88;96974.36;106981;1265;73754;-40
2023/03/12 00:56:13;;;;;;;0.60;0.60;;;;;;;3.85;82.61;96983.09;106758;1266;61583;-40
2023/03/12 00:58:42;;;;;;;1.60;0.60;;;;;;;3.76;80.72;96995.20;106873;1262;61341;-40
2023/03/12 01:01:10;;;;;;;0.70;0.70;;;;;;;3.64;79.10;96994.40;106937;1264;74829;-40
2023/03/12 01:03:39;;;;;;;1.00;0.70;;;;;;;3.55;79.11;97005.98;106885;1265;69911;-40
2023/03/12 01:06:08;;;;;;;0.70;0.60;;;;;;;3.55;79.60;97005.52;106932;1266;73037;-40
2023/03/12 01:08:37;;;;;;;0.60;0.50;;;;;;;3.50;79.97;97004.18;106919;1262;61322;-40
2023/03/12 01:11:06;;;;;;;0.80;0.60;;;;;;;3.40;80.34;96999.96;106758;1263;61511;-40
2023/03/12 01:13:35;;;;;;;1.10;0.60;;;;;;;3.28;80.14;97000.30;106953;1262;75028;-40
2023/03/12 01:16:04;;;;;;;0.80;0.80;;;;;;;3.15;79.38;96995.52;106963;1264;68845;-40
2023/03/12 01:18:33;;;;;;;1.00;1.00;;;;;;;3.02;79.60;96998.30;106819;1266;73645;-40
2023/03/12 01:21:02;;;;;;;0.50;0.50;;;;;;;2.84;79.64;97002.55;107010;1261;60485;-40
2023/03/12 01:23:30;;;;;;;1.20;0.70;;;;;;;2.65;80.07;97016.39;107038;1263;60316;-40
2023/03/12 01:25:59;;;;;;;0.60;0.60;;;;;;;2.54;80.47;97032.22;107029;1264;74728;-40
2023/03/12 01:28:28;;;;;;;0.90;0.80;;;;;;;2.45;80.80;97038.29;107004;1263;69782;-40
2023/03/12 01:30:56;;;;;;;1.30;0.70;;;;;;;2.33;81.09;97041.73;106839;1264;73883;-40
2023/03/12 01:33:25;;;;;;;0.70;0.70;;;;;;;2.20;81.48;97039.79;106911;1266;61170;-40
2023/03/12 01:35:54;;;;;;;0.50;0.50;;;;;;;2.11;81.76;97035.99;107023;1264;61372;-40
2023/03/12 01:38:22;;;;;;;0.70;0.70;;;;;;;2.06;82.31;97044.47;106967;1264;73338;-40
2023/03/12 01:40:55;;;;;;;0.90;0.80;;;;;;;1.95;82.21;97043.92;107009;1264;69969;-40
2023/03/12 01:43:23;;;;;;;1.20;0.90;;;;;;;1.81;82.54;97051.72;106963;1266;74448;-40
2023/03/12 01:46:17;;;;;;;1.00;0.60;;;;;;;1.75;82.97;97057.20;106973;1264;61936;-40
2023/03/12 01:48:48;;;;;;;0.90;0.90;;;;;;;1.73;83.25;97060.38;106968;1266;61573;-40
2023/03/12 01:51:17;;;;;;;1.10;1.00;;;;;;;1.65;83.49;97071.09;106881;1264;75023;-40
2023/03/12 01:53:47;;;;;;;2.00;1.00;;;;;;;1.57;84.09;97075.84;106852;1263;67948;-40
2023/03/12 01:56:16;;;;;;;;;;;;;;;1.56;84.13;97069.70;106870;1266;74720;-40
2023/03/12 01:58:48;;;;;;;0.90;0.80;;;;;;;1.50;84.19;97071.67;106906;1265;60754;-40
2023/03/12 02:01:17;;;;;;;1.50;1.30;;;;;;;1.44;84.67;97078.34;106762;1266;61534;-40
2023/03/12 02:03:47;;;;;;;;;;;;;;;1.38;84.75;97083.02;106985;1264;76191;-40
2023/03/12 02:06:16;;;;;;;1.30;1.10;;;;;;;1.33;85.08;97085.24;105395;1264;1003880;-40
2023/03/12 02:08:45;;;;;;;0.90;0.80;;;;;;;1.33;85.14;97079.58;106847;1261;72140;-40
2023/03/12 02:11:16;;;;;;;1.10;1.00;;;;;;;1.30;85.53;97095.33;106892;1263;60818;-40
2023/03/12 02:13:45;;;;;;;0.80;0.80;;;;;;;1.24;85.78;97099.86;106945;1264;60447;-40
2023/03/12 02:16:15;;;;;;;1.30;1.10;;;;;;;1.25;85.76;97107.45;106845;1263;75041;-40
2023/03/12 02:18:44;;;;;;;1.10;1.00;;;;;;;1.30;85.68;97112.56;106955;1264;69665;-40
2023/03/12 02:21:19;;;;;;;1.10;0.90;;;;;;;1.29;85.82;97128.79;107192;1257;73840;-40
2023/03/12 02:24:12;;;;;;;1.20;1.00;;;;;;;1.27;86.13;97137.75;107256;1258;61220;-40
2023/03/12 02:26:42;;;;;;;1.90;1.40;;;;;;;1.30;85.90;97139.79;107226;1257;61531;-40
2023/03/12 02:29:10;;;;;;;1.50;1.20;;;;;;;1.31;85.62;97147.20;107087;1258;75011;-40
2023/03/12 02:31:43;;;;;;;1.10;0.90;;;;;;;1.30;85.85;97150.55;107109;1263;69983;-40
2023/03/12 02:34:12;;;;;;;1.60;1.50;;;;;;;1.26;85.76;97159.55;107061;1260;73221;-40
2023/03/12 02:36:44;;;;;;;2.20;1.30;;;;;;;1.26;85.11;97163.52;104063;1262;1003787;-40
2023/03/12 02:39:14;;;;;;;1.10;1.00;;;;;;;1.28;84.51;97174.39;107093;1257;61269;-40
2023/03/12 02:41:49;;;;;;;1.50;1.40;;;;;;;1.21;84.13;97174.63;107216;1257;74723;-40
2023/03/12 02:44:21;;;;;;;1.40;1.30;;;;;;;1.11;83.82;97170.00;107189;1257;68720;-40
2023/03/12 02:46:54;;;;;;;2.00;1.40;;;;;;;1.08;83.76;97181.58;107171;1263;73562;-40
2023/03/12 02:49:26;;;;;;;1.50;1.40;;;;;;;1.11;83.67;97187.90;107249;1258;60473;-40
2023/03/12 02:51:55;;;;;;;1.70;1.50;;;;;;;1.13;83.69;97194.27;107191;1262;61562;-40
2023/03/12 02:54:23;;;;;;;1.90;1.60;;;;;;;1.13;83.93;97200.07;107066;1257;74901;-40
2023/03/12 02:56:55;;;;;;;1.60;1.50;;;;;;;1.15;84.20;97199.73;107209;1257;69593;-40
2023/03/12 02:59:25;;;;;;;1.50;1.40;;;;;;;1.23;83.88;97202.80;107088;1257;72561;-40
2023/03/12 03:01:57;;;;;;;1.90;1.60;;;;;;;1.24;83.75;97208.09;107050;1258;60527;-40
2023/03/12 03:04:27;;;;;;;1.40;1.30;;;;;;;1.19;83.78;97215.09;107110;1257;61540;-40
2023/03/12 03:06:56;;;;;;;1.50;1.20;;;;;;;1.13;84.14;97215.23;107080;1257;73867;-40
2023/03/12 03:09:24;;;;;;;1.70;1.50;;;;;;;1.09;83.59;97219.04;107085;1263;69720;-40
2023/03/12 03:11:53;;;;;;;1.80;1.60;;;;;;;1.01;83.15;97232.67;107232;1258;73565;-40
2023/03/12 03:14:32;;;;;;;1.90;1.60;;;;;;;0.93;83.49;97239.05;107192;1258;60762;-40
2023/03/12 03:17:00;;;;;;;1.90;1.40;;;;;;;0.83;83.45;97243.41;107168;1257;61178;-40
2023/03/12 03:19:29;;;;;;;2.50;1.80;;;;;;;0.78;83.26;97242.84;107107;1257;75015;-40
2023/03/12 03:22:03;;;;;;;2.00;1.80;;;;;;;0.73;83.13;97243.23;107053;1259;69867;-40
2023/03/12 03:24:34;;;;;;;2.20;1.80;;;;;;;0.64;83.27;97244.63;107052;1257;73866;-40
2023/03/12 03:27:03;;;;;;;2.50;1.40;;;;;;;0.57;83.50;97246.54;105527;1257;1003434;-41
2023/03/12 03:29:33;;;;;;;1.90;1.70;;;;;;;0.55;83.26;97244.19;107243;1258;61181;-40
2023/03/12 03:32:03;;;;;;;2.60;2.00;;;;;;;0.53;83.29;97245.83;107277;1257;74757;-40
2023/03/12 03:34:31;;;;;;;3.00;2.20;;;;;;;0.47;83.67;97256.27;107264;1257;69933;-40
2023/03/12 03:37:00;;;;;;;4.70;2.00;;;;;;;0.39;83.69;97261.02;107136;1257;72871;-39
2023/03/12 03:39:29;;;;;;;1.60;1.50;;;;;;;0.40;84.06;97271.13;107231;1257;61132;-40
2023/03/12 03:41:58;;;;;;;2.50;2.00;;;;;;;0.41;83.91;97274.65;107154;1257;60431;-40
2023/03/12 03:44:29;;;;;;;2.00;1.70;;;;;;;0.38;83.81;97280.14;107265;1257;74763;-40
2023/03/12 03:47:01;;;;;;;2.10;1.80;;;;;;;0.35;84.03;97281.48;107121;1257;69929;-40
2023/03/12 03:49:30;;;;;;;;;;;;;;;0.32;83.39;97287.81;107231;1257;74914;-40
2023/03/12 03:51:59;;;;;;;3.10;2.60;;;;;;;0.25;83.61;97294.73;107208;1258;60738;-40
2023/03/12 03:54:33;;;;;;;2.80;2.50;;;;;;;0.16;84.07;97302.03;107255;1260;61519;-40
2023/03/12 03:57:02;;;;;;;2.80;2.20;;;;;;;0.11;84.02;97302.71;107213;1257;74855;-39
2023/03/12 03:59:35;;;;;;;2.40;2.10;;;;;;;0.13;84.11;97304.67;107283;1257;69899;-39
2023/03/12 04:02:04;;;;;;;2.90;2.30;;;;;;;0.17;84.19;97311.56;107273;1257;72661;-39
2023/03/12 04:04:35;;;;;;;2.70;2.50;;;;;;;0.15;84.06;97318.66;107225;1260;59662;-40
2023/03/12 04:07:03;;;;;;;3.30;2.70;;;;;;;0.11;84.35;97328.45;107212;1257;61551;-40
2023/03/12 04:09:33;;;;;;;2.70;2.20;;;;;;;-0.03;84.26;97325.94;107216;1257;75247;-40
2023/03/12 04:12:04;;;;;;;3.30;2.60;;;;;;;0.10;83.97;97349.35;107279;1257;68523;-40
2023/03/12 04:14:33;;;;;;;;;;;;;;;0.09;84.07;97351.25;107220;1257;72576;-40
2023/03/12 04:17:03;;;;;;;3.50;2.60;;;;;;;0.06;84.46;97354.19;107172;1257;60817;-40
2023/03/12 04:19:32;;;;;;;3.60;2.90;;;;;;;0.03;84.98;97366.60;107173;1257;61536;-40
2023/03/12 04:22:00;;;;;;;2.30;2.00;;;;;;;0.08;84.42;97377.31;107244;1257;74729;-40
2023/03/12 04:24:30;;;;;;;2.40;2.10;;;;;;;0.14;84.27;97385.02;107197;1257;68943;-40
2023/03/12 04:26:58;;;;;;;3.40;2.90;;;;;;;0.12;84.20;97388.69;107235;1257;74271;-40
2023/03/12 04:29:27;;;;;;;3.10;2.40;;;;;;;0.05;83.78;97395.51;107238;1257;60464;-40
2023/03/12 04:31:56;;;;;;;2.50;2.20;;;;;;;-0.03;83.81;97401.67;107268;1261;61536;-40
2023/03/12 04:34:25;;;;;;;3.20;2.70;;;;;;;-0.03;83.76;97415.21;107205;1257;74464;-40
2023/03/12 04:36:55;;;;;;;3.30;2.60;;;;;;;-0.07;83.50;97423.70;107305;1260;68515;-40
2023/03/12 04:39:25;;;;;;;3.40;2.70;;;;;;;-0.13;83.80;97435.84;107255;1257;73907;-39
2023/03/12 04:41:53;;;;;;;2.50;2.20;;;;;;;-0.17;84.12;97442.27;107217;1260;61702;-40
2023/03/12 04:44:22;;;;;;;2.80;2.30;;;;;;;-0.15;83.88;97445.08;107281;1257;61489;-40
2023/03/12 04:46:54;;;;;;;4.60;3.00;;;;;;;-0.11;83.95;97448.69;107179;1258;74680;-40
2023/03/12 04:49:23;;;;;;;3.10;2.50;;;;;;;-0.10;83.91;97452.21;107304;1257;68224;-40
2023/03/12 04:51:52;;;;;;;4.20;2.50;;;;;;;-0.14;83.90;97460.47;107250;1257;73804;-40
2023/03/12 04:54:21;;;;;;;3.30;2.50;;;;;;;-0.18;84.34;97463.85;107264;1257;62391;-40
2023/03/12 04:56:50;;;;;;;3.00;2.10;;;;;;;-0.17;84.27;97463.19;107217;1257;61194;-40
2023/03/12 04:59:25;;;;;;;2.60;2.20;;;;;;;-0.15;84.25;97470.04;107223;1257;74112;-40
2023/03/12 05:01:54;;;;;;;2.40;2.10;;;;;;;-0.14;84.44;97471.95;107282;1257;69863;-40
2023/03/12 05:04:25;;;;;;;2.80;2.40;;;;;;;-0.18;84.03;97477.56;107231;1257;73826;-40
2023/03/12 05:06:54;;;;;;;2.70;2.10;;;;;;;-0.22;83.81;97483.30;107246;1257;62059;-40
2023/03/12 05:09:23;;;;;;;3.60;2.10;;;;;;;-0.20;83.81;97488.38;107243;1257;61541;-40
2023/03/12 05:11:51;;;;;;;2.20;2.00;;;;;;;-0.15;83.91;97488.96;107253;1257;73639;-40
2023/03/12 05:14:22;;;;;;;2.70;2.20;;;;;;;-0.18;83.84;97487.30;107247;1258;68747;-40
2023/03/12 05:16:51;;;;;;;3.20;2.30;;;;;;;-0.14;83.93;97496.23;106436;1257;1003767;-39
2023/03/12 05:19:21;;;;;;;3.10;1.90;;;;;;;-0.17;83.69;97505.11;107179;1257;61926;-40
2023/03/12 05:21:49;;;;;;;2.80;1.90;;;;;;;-0.17;83.25;97505.95;107235;1257;61563;-40
2023/03/12 05:24:20;;;;;;;3.90;2.30;;;;;;;-0.19;83.04;97512.67;107306;1257;74985;-40
2023/03/12 05:26:50;;;;;;;3.80;1.90;;;;;;;-0.23;83.00;97517.27;107200;1257;68038;-40
2023/03/12 05:29:21;;;;;;;2.80;1.90;;;;;;;-0.29;83.06;97526.05;107202;1257;73804;-40
2023/03/12 05:31:53;;;;;;;2.60;1.80;;;;;;;-0.27;82.99;97533.21;107187;1257;62387;-39
2023/03/12 05:34:21;;;;;;;3.60;1.90;;;;;;;-0.22;82.80;97542.63;107252;1257;61532;-40
2023/03/12 05:36:50;;;;;;;3.10;2.00;;;;;;;-0.20;82.92;97548.85;107223;1257;75050;-40
2023/03/12 05:39:21;;;;;;;2.20;1.90;;;;;;;-0.20;82.91;97564.53;107226;1257;69821;-40
2023/03/12 05:41:55;;;;;;;1.90;1.80;;;;;;;-0.18;82.98;97574.34;107150;1257;73909;-40
2023/03/12 05:44:26;;;;;;;2.20;1.80;;;;;;;-0.14;82.55;97586.46;107210;1257;60465;-40
2023/03/12 05:46:56;;;;;;;2.50;1.90;;;;;;;-0.15;83.06;97589.71;107278;1257;61343;-40
2023/03/12 05:49:29;;;;;;;2.40;2.10;;;;;;;-0.24;83.02;97589.05;107131;1259;75097;-40
2023/03/12 05:51:58;;;;;;;1.50;1.40;;;;;;;-0.23;83.16;97606.73;107096;1257;68792;-40
2023/03/12 05:54:27;;;;;;;1.40;1.20;;;;;;;-0.23;83.05;97612.20;107112;1257;73944;-40
2023/03/12 05:56:57;;;;;;;2.00;1.40;;;;;;;-0.23;82.89;97623.70;107095;1257;59243;-40
2023/03/12 05:59:26;;;;;;;2.00;1.60;;;;;;;-0.24;83.15;97634.54;107126;1257;61201;-40
2023/03/12 06:01:56;;;;;;;2.50;1.50;;;;;;;-0.28;83.27;97643.70;107145;1257;74753;-40
2023/03/12 06:04:25;;;;;;;1.80;1.40;;;;;;;-0.26;83.19;97646.50;107259;1257;68905;-40
2023/03/12 06:06:54;;;;;;;2.20;1.80;;;;;;;-0.22;83.24;97656.73;107117;1262;73361;-40
2023/03/12 06:09:22;;;;;;;1.70;1.60;;;;;;;-0.23;83.30;97663.70;107291;1257;60392;-40
2023/03/12 06:11:52;;;;;;;2.70;1.50;;;;;;;-0.22;83.72;97671.65;107150;1257;60522;-40
2023/03/12 06:14:20;;;;;;;1.60;1.30;;;;;;;-0.16;83.38;97681.00;107167;1258;75006;-40
2023/03/12 06:16:50;;;;;;;3.10;1.40;;;;;;;-0.17;83.08;97677.30;107168;1257;69793;-40
2023/03/12 06:19:18;;;;;;;1.30;1.20;;;;;;;-0.10;82.92;97692.23;107139;1258;74081;-40
2023/03/12 06:21:55;;;;;;;1.70;1.20;;;;;;;-0.14;82.40;97700.38;106462;1257;1003620;-40
2023/03/12 06:24:24;;;;;;;1.60;1.30;;;;;;;-0.17;82.83;97702.55;107207;1260;60418;-40
2023/03/12 06:27:01;;;;;;;1.80;1.60;;;;;;;-0.13;82.29;97711.24;104949;1257;1003740;-40
2023/03/12 06:29:30;;;;;;;1.20;1.10;;;;;;;-0.10;82.49;97723.37;107215;1257;69017;-39
2023/03/12 06:31:59;;;;;;;1.70;1.50;;;;;;;-0.08;82.33;97727.36;107223;1257;73715;-40
2023/03/12 06:34:33;;;;;;;1.50;1.20;;;;;;;-0.09;82.22;97743.02;107224;1257;62276;-40
2023/03/12 06:37:02;;;;;;;2.00;1.40;;;;;;;-0.04;81.92;97751.33;107193;1257;61215;-40
2023/03/12 06:39:31;;;;;;;1.40;1.20;;;;;;;-0.02;81.82;97757.04;107182;1257;74533;-40
2023/03/12 06:42:00;;;;;;;2.20;1.40;;;;;;;-0.05;82.06;97759.16;107279;1257;69983;-40
2023/03/12 06:44:28;;;;;;;1.70;1.30;;;;;;;-0.17;81.91;97754.46;107242;1257;73957;-40
2023/03/12 06:46:57;;;;;;;1.20;1.00;;;;;;;-0.07;81.80;97768.59;107199;1258;62377;-40
2023/03/12 06:49:30;;;;;;;1.90;1.40;;;;;;;-0.03;81.48;97776.80;107221;1257;61524;-40
2023/03/12 06:51:59;;;;;;;2.10;1.40;;;;;;;-0.04;81.56;97791.81;107293;1260;74752;-40
2023/03/12 06:54:30;;;;;;;1.30;1.20;;;;;;;-0.07;81.45;97797.27;107297;1257;69887;-40
2023/03/12 06:56:58;;;;;;;;;;;;;;;-0.08;81.32;97805.48;107278;1257;73898;-40
2023/03/12 06:59:28;;;;;;;1.40;1.00;;;;;;;-0.05;81.07;97800.08;107270;1257;60547;-40
2023/03/12 07:01:56;;;;;;;1.90;1.40;;;;;;;-0.08;81.23;97813.31;107257;1257;61531;-40
2023/03/12 07:04:26;;;;;;;1.90;1.50;;;;;;;-0.09;81.61;97817.84;107304;1257;73796;-40
2023/03/12 07:06:54;;;;;;;1.60;1.40;;;;;;;-0.10;81.57;97826.72;107307;1257;69970;-40
2023/03/12 07:09:27;;;;;;;1.90;1.20;;;;;;;-0.08;80.59;97828.36;107197;1257;73884;-40
2023/03/12 07:11:57;;;;;;;1.60;1.30;;;;;;;-0.07;80.36;97841.20;107241;1257;60765;-40
2023/03/12 07:14:26;;;;;;;2.40;1.40;;;;;;;-0.07;80.75;97844.15;107332;1257;60206;-40
2023/03/12 07:16:55;;;;;;;2.20;1.30;;;;;;;-0.09;80.50;97851.17;107196;1257;73350;-40
2023/03/12 07:19:24;;;;;;;2.40;1.30;;;;;;;-0.07;79.45;97854.30;107269;1257;69978;-40
2023/03/12 07:21:52;;;;;;;4.10;1.40;;;;;;;0.04;78.94;97860.23;107173;1257;73875;-40
2023/03/12 07:24:21;;;;;;;1.90;1.40;;;;;;;0.13;77.83;97867.55;107204;1258;60887;-40
2023/03/12 07:26:50;;;;;;;2.60;1.40;;;;;;;0.19;77.39;97865.92;107215;1257;60620;-40
2023/03/12 07:29:18;;;;;;;4.10;1.30;;;;;;;0.27;75.94;97867.23;107202;1257;75013;-40
2023/03/12 07:31:47;;;;;;;2.60;1.30;;;;;;;0.41;74.52;97876.07;107242;1257;69806;-40
2023/03/12 07:34:16;;;;;;;2.60;1.30;;;;;;;0.55;73.11;97881.29;107221;1261;73859;-40
2023/03/12 07:36:49;;;;;;;2.80;1.50;;;;;;;0.64;72.15;97884.64;107190;1258;60772;-40
2023/03/12 07:39:18;;;;;;;3.40;1.60;;;;;;;0.71;72.01;97892.16;106459;1257;1003520;-40
2023/03/12 07:41:46;;;;;;;2.30;1.30;;;;;;;0.80;71.78;97899.12;106510;1257;1003669;-40
2023/03/12 07:47:02;;;;;;;1.70;1.10;;;;;;;0.92;69.65;97905.14;104266;1292;600839;-41
2023/03/12 07:49:50;;;;;;;3.10;1.30;;;;;;;0.94;69.25;97913.88;106701;1267;60591;-41
2023/03/12 07:52:19;;;;;;;3.60;1.60;;;;;;;0.95;69.48;97917.37;106640;1266;61565;-41
2023/03/12 07:54:51;;;;;;;1.80;1.20;;;;;;;0.96;67.68;97914.80;106641;1267;73256;-41
2023/03/12 07:57:21;;;;;;;5.20;1.20;;;;;;;0.93;66.82;97927.51;106736;1267;68471;-41
2023/03/12 07:59:49;;;;;;;2.30;1.20;;;;;;;0.88;66.89;97930.39;106519;1266;224299;-41
2023/03/12 08:02:19;;;;;;;3.90;1.50;;;;;;;0.93;66.82;97931.69;106705;1263;60463;-41
2023/03/12 08:04:48;;;;;;;;;;;;;;;0.98;66.14;97937.29;106784;1263;62251;-41
2023/03/12 08:07:16;;;;;;;3.50;1.30;;;;;;;0.95;65.91;97945.86;106814;1263;73430;-41
2023/03/12 08:09:48;;;;;;;2.40;1.30;;;;;;;0.90;65.68;97958.30;106765;1263;69007;-41
2023/03/12 08:12:21;;;;;;;3.20;1.60;;;;;;;0.94;66.52;97963.08;106853;1267;73834;-41
2023/03/12 08:14:50;;;;;;;2.60;1.50;;;;;;;1.00;66.94;97970.66;106895;1267;60433;-41
2023/03/12 08:17:19;;;;;;;3.20;1.30;;;;;;;1.00;65.22;97975.08;107590;1254;61574;-41
2023/03/12 08:19:47;;;;;;;1.50;1.10;;;;;;;1.02;64.93;97981.34;107612;1254;74227;-41
2023/03/12 08:22:16;;;;;;;2.10;1.30;;;;;;;1.00;64.56;97990.13;107622;1256;69967;-40
2023/03/12 08:24:45;;;;;;;3.00;1.60;;;;;;;0.97;65.03;97991.00;106829;1254;1002940;-41
2023/03/12 08:27:16;;;;;;;2.10;1.20;;;;;;;0.96;65.27;97993.78;107609;1254;59630;-41
2023/03/12 08:29:44;;;;;;;2.00;1.40;;;;;;;0.98;64.24;97997.83;107551;1254;61262;-41
2023/03/12 08:32:15;;;;;;;3.40;1.40;;;;;;;0.99;64.76;98006.85;107565;1254;72953;-41
2023/03/12 08:34:45;;;;;;;2.60;1.20;;;;;;;1.00;64.11;98009.30;107578;1254;69952;-41
2023/03/12 08:37:13;;;;;;;2.20;1.20;;;;;;;1.04;64.08;98014.79;107537;1254;72985;-41
2023/03/12 08:39:42;;;;;;;3.30;1.50;;;;;;;1.14;64.15;98020.77;107565;1254;60265;-41
2023/03/12 08:42:12;;;;;;;3.40;1.50;;;;;;;1.25;63.86;98030.40;107630;1254;59986;-41
2023/03/12 08:44:41;;;;;;;;;;;;;;;1.30;63.06;98037.03;107590;1256;74044;-42
2023/03/12 08:47:10;;;;;;;1.90;1.30;;;;;;;1.24;63.04;98045.17;107607;1254;69849;-41
2023/03/12 08:49:39;;;;;;;3.60;1.40;;;;;;;1.27;63.08;98050.22;107583;1254;73771;-40
2023/03/12 08:52:07;;;;;;;2.70;1.30;;;;;;;1.41;62.46;98052.73;106801;1254;1003057;-41
2023/03/12 08:54:36;;;;;;;2.60;1.30;;;;;;;1.57;63.06;98057.09;107544;1254;61204;-41
2023/03/12 08:57:05;;;;;;;2.60;1.30;;;;;;;1.79;63.29;98060.86;106791;1254;1003769;-41
2023/03/12 08:59:35;;;;;;;2.20;1.30;;;;;;;1.99;61.34;98066.83;107547;1254;70429;-41
2023/03/12 09:02:06;;;;;;;2.40;1.60;;;;;;;2.04;60.38;98068.27;107533;1254;73648;-41
2023/03/12 09:04:36;;;;;;;3.30;1.60;;;;;;;1.94;60.16;98073.31;107580;1254;60582;-41
2023/03/12 09:07:05;;;;;;;2.50;1.60;;;;;;;1.89;60.55;98082.80;107614;1254;61772;-41
2023/03/12 09:09:34;;;;;;;3.80;1.80;;;;;;;2.00;60.54;98083.07;107586;1254;73853;-41
2023/03/12 09:12:04;;;;;;;3.60;1.50;;;;;;;2.17;60.34;98092.70;107636;1254;68455;-41
2023/03/12 09:14:37;;;;;;;3.50;1.60;;;;;;;2.30;59.16;98099.66;107601;1254;73886;-40
2023/03/12 09:17:28;;;;;;;2.90;2.10;;;;;;;2.39;59.20;98108.73;107560;1254;60787;-41
2023/03/12 09:19:56;;;;;;;3.20;1.80;;;;;;;2.38;59.48;98116.10;107621;1254;60389;-41
2023/03/12 09:22:25;;;;;;;4.00;1.60;;;;;;;2.39;58.81;98119.34;107602;1254;73895;-41
2023/03/12 09:24:53;;;;;;;4.60;1.70;;;;;;;2.43;58.72;98118.63;106842;1254;1003522;-41
2023/03/12 09:27:22;;;;;;;3.00;1.60;;;;;;;2.50;58.95;98123.73;107593;1254;73860;-41
2023/03/12 09:29:53;;;;;;;2.50;1.70;;;;;;;2.60;59.17;98130.30;107593;1254;60781;-41
2023/03/12 09:32:28;;;;;;;2.30;1.50;;;;;;;2.69;58.28;98136.45;107558;1254;61541;-41
2023/03/12 09:35:04;;;;;;;5.30;1.70;;;;;;;2.65;58.24;98138.17;107596;1254;73342;-41
2023/03/12 09:37:33;;;;;;;3.60;1.70;;;;;;;2.59;59.11;98145.56;107293;1254;68808;-41
2023/03/12 09:40:04;;;;;;;4.40;1.70;;;;;;;2.51;58.69;98151.13;107522;1257;73580;-41
2023/03/12 09:43:00;;;;;;;2.40;1.60;;;;;;;2.48;59.25;98153.19;107523;1254;60630;-41
2023/03/12 09:45:36;;;;;;;3.50;1.70;;;;;;;2.44;59.03;98166.49;107620;1254;61532;-41
2023/03/12 09:48:06;;;;;;;3.40;1.70;;;;;;;2.37;59.05;98173.91;107618;1254;74260;-41
2023/03/12 09:50:42;;;;;;;4.90;2.00;;;;;;;2.32;58.96;98176.12;107357;1254;68745;-41
2023/03/12 09:53:50;;;;;;;2.90;1.60;;;;;;;2.29;59.85;98184.02;107583;1254;73873;-41
2023/03/12 09:56:19;;;;;;;4.50;1.70;;;;;;;2.29;60.21;98194.37;107481;1254;60749;-41
2023/03/12 09:58:50;;;;;;;2.10;1.60;;;;;;;2.28;59.49;98196.08;107589;1254;61601;-41
2023/03/12 10:01:32;;;;;;;;;;;;;;;2.23;59.33;98209.73;107596;1258;75141;-41
2023/03/12 10:04:24;;;;;;;2.70;1.50;;;;;;;2.10;59.70;98216.98;107625;1254;70008;-41
2023/03/12 10:07:14;;;;;;;4.70;1.90;;;;;;;2.09;59.55;98221.81;107588;1254;71866;-41
2023/03/12 10:10:09;;;;;;;4.10;1.90;;;;;;;2.14;59.43;98225.27;107606;1254;60549;-41
2023/03/12 10:13:17;;;;;;;3.90;1.80;;;;;;;2.22;59.13;98220.49;107605;1254;61616;-41
2023/03/12 10:16:04;;;;;;;3.50;2.20;;;;;;;2.26;59.22;98223.89;107617;1254;74307;-41
2023/03/12 10:18:45;;;;;;;3.50;2.00;;;;;;;2.20;59.23;98235.70;107601;1254;69954;-41
2023/03/12 10:21:21;;;;;;;3.80;1.80;;;;;;;2.16;59.07;98235.04;107615;1254;74005;-41
2023/03/12 10:24:17;;;;;;;3.10;1.70;;;;;;;2.17;59.05;98240.88;107641;1254;60793;-41
2023/03/12 10:26:49;;;;;;;3.30;1.60;;;;;;;2.22;59.18;98238.14;107603;1254;61373;-41
2023/03/12 10:29:33;;;;;;;2.80;1.60;;;;;;;2.32;59.41;98240.90;107647;1254;74213;-41
2023/03/12 10:32:11;;;;;;;2.30;1.80;;;;;;;2.54;59.22;98241.87;107375;1254;69515;-41
2023/03/12 10:34:47;;;;;;;1.90;1.40;;;;;;;2.88;59.33;98240.52;107603;1254;73752;-41
2023/03/12 10:37:34;;;;;;;2.90;1.40;;;;;;;3.33;57.12;98236.10;107600;1254;60879;-41
2023/03/12 10:40:04;;;;;;;4.60;1.80;;;;;;;3.75;55.47;98242.12;107675;1254;60355;-41
2023/03/12 10:42:33;;;;;;;2.00;1.40;;;;;;;3.95;55.00;98237.37;107701;1254;74239;-41
2023/03/12 10:45:04;;;;;;;2.90;1.50;;;;;;;4.16;54.59;98237.99;107624;1258;69719;-41
2023/03/12 10:47:35;;;;;;;2.80;1.80;;;;;;;4.30;54.25;98237.52;107601;1254;73874;-41
2023/03/12 10:50:23;;;;;;;3.40;1.60;;;;;;;4.43;54.79;98238.75;107637;1254;59458;-41
2023/03/12 10:53:11;;;;;;;3.60;1.70;;;;;;;4.61;55.16;98237.90;107582;1254;61487;-41
2023/03/12 10:55:39;;;;;;;3.60;1.90;;;;;;;4.70;54.45;98235.59;107629;1254;73023;-41
2023/03/12 10:58:21;;;;;;;2.80;1.70;;;;;;;4.76;54.48;98236.34;107660;1254;69937;-41
2023/03/12 11:00:57;;;;;;;4.80;1.90;;;;;;;4.90;53.16;98237.13;107533;1254;73549;-41
2023/03/12 11:03:26;;;;;;;3.00;1.70;;;;;;;4.94;52.42;98229.23;107618;1254;60918;-41
2023/03/12 11:06:01;;;;;;;2.20;1.80;;;;;;;5.02;52.48;98226.95;107531;1254;59499;-41
2023/03/12 11:08:34;;;;;;;3.70;1.70;;;;;;;5.13;51.53;98229.52;107587;1253;73914;-41
2023/03/12 11:11:03;;;;;;;3.90;1.80;;;;;;;5.21;51.25;98237.05;107633;1254;68839;-41
2023/03/12 11:13:40;;;;;;;4.40;2.30;;;;;;;5.25;51.81;98239.30;107612;1254;73655;-41
2023/03/12 11:16:15;;;;;;;4.50;2.10;;;;;;;5.28;51.59;98247.41;107571;1254;60713;-41
2023/03/12 11:19:00;;;;;;;2.40;1.70;;;;;;;5.26;50.60;98243.06;107596;1254;61481;-41
2023/03/12 11:21:37;;;;;;;4.90;1.90;;;;;;;5.20;51.36;98245.65;107630;1254;72771;-41
2023/03/12 11:24:12;;;;;;;3.20;1.90;;;;;;;5.15;51.12;98252.42;107622;1255;68796;-41
2023/03/12 11:26:41;;;;;;;3.10;1.80;;;;;;;5.07;51.27;98254.77;107556;1254;73356;-41
2023/03/12 11:29:17;;;;;;;3.80;1.80;;;;;;;5.02;51.72;98258.13;107667;1254;60407;-41
2023/03/12 11:32:14;;;;;;;3.80;1.90;;;;;;;4.98;51.15;98260.71;107638;1257;59944;-41
2023/03/12 11:34:48;;;;;;;3.30;1.90;;;;;;;4.87;52.16;98262.83;107639;1254;74215;-41
2023/03/12 11:37:47;;;;;;;4.20;2.10;;;;;;;4.70;52.29;98265.34;107590;1254;69667;-41
2023/03/12 11:40:41;;;;;;;3.30;1.80;;;;;;;4.57;52.48;98270.09;106806;1254;1003739;-41
2023/03/12 11:43:14;;;;;;;3.10;1.90;;;;;;;4.54;52.75;98276.61;107590;1254;60828;-41
2023/03/12 11:45:59;;;;;;;4.40;2.60;;;;;;;4.51;53.66;98279.92;107572;1255;61457;-42
2023/03/12 11:48:50;;;;;;;3.10;2.00;;;;;;;4.49;53.21;98278.33;107568;1258;74084;-41
2023/03/12 11:51:31;;;;;;;3.70;2.00;;;;;;;4.52;53.72;98284.15;107645;1254;69829;-41
2023/03/12 11:54:18;;;;;;;4.20;2.30;;;;;;;4.46;53.28;98285.84;107576;1254;73682;-41
2023/03/12 11:56:58;;;;;;;3.70;2.20;;;;;;;4.38;53.51;98287.31;107602;1254;60794;-41